KZ-0050 weather

Podgorny Airport
Podgorny, Jambyl Region, Kazakhstan

Public forecast

Using degrees Celsius for public forecast. Weather courtesy of forecast.io.

METAR (pilot weather report)

Closest report is Taraz Airport, 52.6 nm (97.4 km) WSW. Retrieved 2019/03/24 11:00 UTC (13 minutes ago):

UADD 241100Z 34003MPS 300V030 9999 BKN046 OVC100 14/04 Q1020 R31/0///65 NOSIG RMK QFE706/0942

TAF (pilot weather forecast)

Forecast is more than 12 hours old.

Closest forecast is Taraz Airport, 52.6 nm (97.4 km) WSW. Retrieved 2019/01/06 00:06 UTC (3 months ago):

TAF TAF UADD 052300Z 0500/0609 18005MPS 1000 BR BKN003 OVC020 TEMPO 0600/0606 0200 FZFG VV001